Check out our new PWSWeather beta!
PWSweather.com
Personal Weather Stations
Station Observations
KMDSOLOM1
solomons, Solomons, MD 20688

solomonsSolomons, MD 20688

Lat: 38.32, Lon: -76.45

Elevation: 5

Station Type:

http://www.act-us.info/weather

High Low Average
Temperature 58.5°F14.7°C 48.9°F9.4°C 53.8°F12.1°C
Dew Point 51.9°F11.1°C 40.5°F4.7°C 47.5°F8.6°C
Winds 18.0 mph 29.0 kmh Calm Calm 10.0 mph ESE16.1 kmh ESE
Wind Gusts 20.0 mph32.2 kmh 2.0 mph3.2 kmh 13.0 mph20.9 kmh
Humidity 93% 65% 79%
Pressure 30.13 in1020.3 mb 29.92 in1013.2 mb -
Precipitation 0.00 in0.0 mm - -
Hour Temp Dew Point Humidity Winds Wind Gusts Pressure Precip Precip Rate Daily Precip Total
12:00 AM 53.7°F12.1°C 48.3°F9.1°C 82% Calm Calm 2.0 mph3.2 kmh 29.93 in1013.5 mb 0.00 in0.0 mm 0.00 in0.0 mm 0.00 in0.0 mm
12:05 AM 53.7°F12.1°C 48.7°F9.3°C 83% 2.0 mph NNE3.2 kmh NNE 2.0 mph3.2 kmh 29.93 in1013.5 mb 0.00 in0.0 mm 0.00 in0.0 mm 0.00 in0.0 mm
12:10 AM 54.1°F12.3°C 50.0°F10.0°C 86% 4.0 mph NNE6.4 kmh NNE 4.0 mph6.4 kmh 29.93 in1013.5 mb 0.00 in0.0 mm 0.00 in0.0 mm 0.00 in0.0 mm
12:15 AM 54.3°F12.4°C 50.2°F10.1°C 86% 3.0 mph NNE4.8 kmh NNE 4.0 mph6.4 kmh 29.93 in1013.5 mb 0.00 in0.0 mm 0.00 in0.0 mm 0.00 in0.0 mm
12:20 AM 54.5°F12.5°C 50.4°F10.2°C 86% 4.0 mph NNE6.4 kmh NNE 5.0 mph8.0 kmh 29.93 in1013.5 mb 0.00 in0.0 mm 0.00 in0.0 mm 0.00 in0.0 mm
12:25 AM 54.8°F12.7°C 51.0°F10.6°C 87% 4.0 mph NNE6.4 kmh NNE 5.0 mph8.0 kmh 29.93 in1013.5 mb 0.00 in0.0 mm 0.00 in0.0 mm 0.00 in0.0 mm
12:30 AM 54.9°F12.7°C 51.4°F10.8°C 88% 5.0 mph NNE8.0 kmh NNE 5.0 mph8.0 kmh 29.92 in1013.2 mb 0.00 in0.0 mm 0.00 in0.0 mm 0.00 in0.0 mm
12:35 AM 54.9°F12.7°C 51.4°F10.8°C 88% 3.0 mph NNE4.8 kmh NNE 5.0 mph8.0 kmh 29.93 in1013.5 mb 0.00 in0.0 mm 0.00 in0.0 mm 0.00 in0.0 mm
12:40 AM 55.0°F12.8°C 51.8°F11.0°C 89% 5.0 mph NNE8.0 kmh NNE 5.0 mph8.0 kmh 29.93 in1013.5 mb 0.00 in0.0 mm 0.00 in0.0 mm 0.00 in0.0 mm
12:45 AM 54.9°F12.7°C 51.7°F10.9°C 89% 2.0 mph NNE3.2 kmh NNE 5.0 mph8.0 kmh 29.94 in1013.9 mb 0.00 in0.0 mm 0.00 in0.0 mm 0.00 in0.0 mm
12:50 AM 54.9°F12.7°C 51.7°F10.9°C 89% 2.0 mph NNE3.2 kmh NNE 5.0 mph8.0 kmh 29.94 in1013.9 mb 0.00 in0.0 mm 0.00 in0.0 mm 0.00 in0.0 mm
12:55 AM 54.8°F12.7°C 51.6°F10.9°C 89% 4.0 mph NNE6.4 kmh NNE 4.0 mph6.4 kmh 29.94 in1013.9 mb 0.00 in0.0 mm 0.00 in0.0 mm 0.00 in0.0 mm
01:00 AM 54.8°F12.7°C 51.6°F10.9°C 89% 3.0 mph NNE4.8 kmh NNE 4.0 mph6.4 kmh 29.94 in1013.9 mb 0.00 in0.0 mm 0.00 in0.0 mm 0.00 in0.0 mm
01:05 AM 54.8°F12.7°C 51.9°F11.1°C 90% 5.0 mph NNE8.0 kmh NNE 7.0 mph11.3 kmh 29.95 in1014.2 mb 0.00 in0.0 mm 0.00 in0.0 mm 0.00 in0.0 mm
01:10 AM 54.7°F12.6°C 51.5°F10.8°C 89% 3.0 mph NNE4.8 kmh NNE 3.0 mph4.8 kmh 29.95 in1014.2 mb 0.00 in0.0 mm 0.00 in0.0 mm 0.00 in0.0 mm
01:15 AM 54.4°F12.4°C 51.2°F10.7°C 89% 2.0 mph NNE3.2 kmh NNE 4.0 mph6.4 kmh 29.94 in1013.9 mb 0.00 in0.0 mm 0.00 in0.0 mm 0.00 in0.0 mm
01:20 AM 54.2°F12.3°C 50.7°F10.4°C 88% 3.0 mph NNE4.8 kmh NNE 4.0 mph6.4 kmh 29.95 in1014.2 mb 0.00 in0.0 mm 0.00 in0.0 mm 0.00 in0.0 mm
01:25 AM 54.0°F12.2°C 50.5°F10.3°C 88% 2.0 mph NNE3.2 kmh NNE 2.0 mph3.2 kmh 29.95 in1014.2 mb 0.00 in0.0 mm 0.00 in0.0 mm 0.00 in0.0 mm
01:30 AM 53.8°F12.1°C 50.3°F10.2°C 88% 2.0 mph NNE3.2 kmh NNE 3.0 mph4.8 kmh 29.95 in1014.2 mb 0.00 in0.0 mm 0.00 in0.0 mm 0.00 in0.0 mm
01:35 AM 53.8°F12.1°C 50.6°F10.3°C 89% 2.0 mph NNE3.2 kmh NNE 3.0 mph4.8 kmh 29.95 in1014.2 mb 0.00 in0.0 mm 0.00 in0.0 mm 0.00 in0.0 mm
01:40 AM 53.8°F12.1°C 50.6°F10.3°C 89% 2.0 mph NNE3.2 kmh NNE 2.0 mph3.2 kmh 29.95 in1014.2 mb 0.00 in0.0 mm 0.00 in0.0 mm 0.00 in0.0 mm
01:45 AM 53.8°F12.1°C 50.9°F10.5°C 90% 3.0 mph NNE4.8 kmh NNE 3.0 mph4.8 kmh 29.94 in1013.9 mb 0.00 in0.0 mm 0.00 in0.0 mm 0.00 in0.0 mm
01:50 AM 53.9°F12.2°C 51.3°F10.7°C 91% 3.0 mph NNE4.8 kmh NNE 4.0 mph6.4 kmh 29.94 in1013.9 mb 0.00 in0.0 mm 0.00 in0.0 mm 0.00 in0.0 mm
01:55 AM 54.0°F12.2°C 51.4°F10.8°C 91% 3.0 mph NNE4.8 kmh NNE 4.0 mph6.4 kmh 29.94 in1013.9 mb 0.00 in0.0 mm 0.00 in0.0 mm 0.00 in0.0 mm
02:00 AM 54.0°F12.2°C 51.4°F10.8°C 91% 3.0 mph NNE4.8 kmh NNE 4.0 mph6.4 kmh 29.94 in1013.9 mb 0.00 in0.0 mm 0.00 in0.0 mm 0.00 in0.0 mm
02:05 AM 53.9°F12.2°C 51.6°F10.9°C 92% 4.0 mph NNE6.4 kmh NNE 4.0 mph6.4 kmh 29.94 in1013.9 mb 0.00 in0.0 mm 0.00 in0.0 mm 0.00 in0.0 mm
02:10 AM 53.9°F12.2°C 51.6°F10.9°C 92% 3.0 mph NNE4.8 kmh NNE 4.0 mph6.4 kmh 29.95 in1014.2 mb 0.00 in0.0 mm 0.00 in0.0 mm 0.00 in0.0 mm
02:15 AM 53.9°F12.2°C 51.6°F10.9°C 92% 3.0 mph NNE4.8 kmh NNE 4.0 mph6.4 kmh 29.95 in1014.2 mb 0.00 in0.0 mm 0.00 in0.0 mm 0.00 in0.0 mm
02:20 AM 53.8°F12.1°C 51.5°F10.8°C 92% 2.0 mph NNE3.2 kmh NNE 4.0 mph6.4 kmh 29.95 in1014.2 mb 0.00 in0.0 mm 0.00 in0.0 mm 0.00 in0.0 mm
02:25 AM 53.8°F12.1°C 51.5°F10.8°C 92% 5.0 mph NNE8.0 kmh NNE 5.0 mph8.0 kmh 29.95 in1014.2 mb 0.00 in0.0 mm 0.00 in0.0 mm 0.00 in0.0 mm
02:30 AM 53.8°F12.1°C 51.5°F10.8°C 92% 2.0 mph NNE3.2 kmh NNE 5.0 mph8.0 kmh 29.95 in1014.2 mb 0.00 in0.0 mm 0.00 in0.0 mm 0.00 in0.0 mm
02:35 AM 53.8°F12.1°C 51.8°F11.0°C 93% 4.0 mph N6.4 kmh N 5.0 mph8.0 kmh 29.95 in1014.2 mb 0.00 in0.0 mm 0.00 in0.0 mm 0.00 in0.0 mm
02:40 AM 53.4°F11.9°C 51.1°F10.6°C 92% 5.0 mph WNW8.0 kmh WNW 5.0 mph8.0 kmh 29.95 in1014.2 mb 0.00 in0.0 mm 0.00 in0.0 mm 0.00 in0.0 mm
02:45 AM 53.0°F11.7°C 50.7°F10.4°C 92% 3.0 mph WNW4.8 kmh WNW 7.0 mph11.3 kmh 29.96 in1014.6 mb 0.00 in0.0 mm 0.00 in0.0 mm 0.00 in0.0 mm
02:50 AM 52.8°F11.6°C 50.5°F10.3°C 92% 2.0 mph WNW3.2 kmh WNW 7.0 mph11.3 kmh 29.96 in1014.6 mb 0.00 in0.0 mm 0.00 in0.0 mm 0.00 in0.0 mm
02:55 AM 52.6°F11.4°C 50.4°F10.2°C 92% 5.0 mph WNW8.0 kmh WNW 7.0 mph11.3 kmh 29.96 in1014.6 mb 0.00 in0.0 mm 0.00 in0.0 mm 0.00 in0.0 mm
03:00 AM 52.4°F11.3°C 50.2°F10.1°C 92% 4.0 mph WNW6.4 kmh WNW 7.0 mph11.3 kmh 29.96 in1014.6 mb 0.00 in0.0 mm 0.00 in0.0 mm 0.00 in0.0 mm
03:05 AM 52.3°F11.3°C 50.1°F10.1°C 92% 5.0 mph WNW8.0 kmh WNW 7.0 mph11.3 kmh 29.96 in1014.6 mb 0.00 in0.0 mm 0.00 in0.0 mm 0.00 in0.0 mm
03:10 AM 52.2°F11.2°C 50.0°F10.0°C 92% 9.0 mph NW14.5 kmh NW 9.0 mph14.5 kmh 29.96 in1014.6 mb 0.00 in0.0 mm 0.00 in0.0 mm 0.00 in0.0 mm
03:15 AM 52.0°F11.1°C 49.5°F9.7°C 91% 5.0 mph NW8.0 kmh NW 10.0 mph16.1 kmh 29.96 in1014.6 mb 0.00 in0.0 mm 0.00 in0.0 mm 0.00 in0.0 mm
03:20 AM 51.8°F11.0°C 49.3°F9.6°C 91% 8.0 mph NNW12.9 kmh NNW 10.0 mph16.1 kmh 29.96 in1014.6 mb 0.00 in0.0 mm 0.00 in0.0 mm 0.00 in0.0 mm
03:25 AM 51.7°F10.9°C 48.9°F9.4°C 90% 6.0 mph NNW9.7 kmh NNW 6.0 mph9.7 kmh 29.97 in1014.9 mb 0.00 in0.0 mm 0.00 in0.0 mm 0.00 in0.0 mm
03:30 AM 51.5°F10.8°C 48.4°F9.1°C 89% 8.0 mph NW12.9 kmh NW 8.0 mph12.9 kmh 29.97 in1014.9 mb 0.00 in0.0 mm 0.00 in0.0 mm 0.00 in0.0 mm
03:35 AM 51.3°F10.7°C 47.6°F8.7°C 87% 9.0 mph NW14.5 kmh NW 11.0 mph17.7 kmh 29.97 in1014.9 mb 0.00 in0.0 mm 0.00 in0.0 mm 0.00 in0.0 mm
03:40 AM 51.2°F10.7°C 47.5°F8.6°C 87% 8.0 mph NW12.9 kmh NW 9.0 mph14.5 kmh 29.97 in1014.9 mb 0.00 in0.0 mm 0.00 in0.0 mm 0.00 in0.0 mm
03:45 AM 51.0°F10.6°C 46.7°F8.2°C 85% 5.0 mph NW8.0 kmh NW 12.0 mph19.3 kmh 29.97 in1014.9 mb 0.00 in0.0 mm 0.00 in0.0 mm 0.00 in0.0 mm
03:50 AM 50.9°F10.5°C 46.3°F7.9°C 84% 11.0 mph NW17.7 kmh NW 12.0 mph19.3 kmh 29.98 in1015.2 mb 0.00 in0.0 mm 0.00 in0.0 mm 0.00 in0.0 mm
03:55 AM 50.7°F10.4°C 45.7°F7.6°C 83% 10.0 mph NW16.1 kmh NW 11.0 mph17.7 kmh 29.98 in1015.2 mb 0.00 in0.0 mm 0.00 in0.0 mm 0.00 in0.0 mm
04:00 AM 50.6°F10.3°C 45.6°F7.6°C 83% 8.0 mph NW12.9 kmh NW 12.0 mph19.3 kmh 29.99 in1015.6 mb 0.00 in0.0 mm 0.00 in0.0 mm 0.00 in0.0 mm
04:05 AM 50.5°F10.3°C 45.2°F7.3°C 82% 5.0 mph NW8.0 kmh NW 13.0 mph20.9 kmh 29.99 in1015.6 mb 0.00 in0.0 mm 0.00 in0.0 mm 0.00 in0.0 mm
04:10 AM 50.4°F10.2°C 44.8°F7.1°C 81% 10.0 mph NNW16.1 kmh NNW 11.0 mph17.7 kmh 29.99 in1015.6 mb 0.00 in0.0 mm 0.00 in0.0 mm 0.00 in0.0 mm
04:15 AM 50.3°F10.2°C 44.4°F6.9°C 80% 10.0 mph NNW16.1 kmh NNW 11.0 mph17.7 kmh 29.99 in1015.6 mb 0.00 in0.0 mm 0.00 in0.0 mm 0.00 in0.0 mm
04:20 AM 50.2°F10.1°C 44.6°F7.0°C 81% 11.0 mph N17.7 kmh N 11.0 mph17.7 kmh 29.98 in1015.2 mb 0.00 in0.0 mm 0.00 in0.0 mm 0.00 in0.0 mm
04:25 AM 50.1°F10.1°C 44.2°F6.8°C 80% 9.0 mph NNW14.5 kmh NNW 13.0 mph20.9 kmh 29.99 in1015.6 mb 0.00 in0.0 mm 0.00 in0.0 mm 0.00 in0.0 mm
04:30 AM 50.0°F10.0°C 44.4°F6.9°C 81% 11.0 mph N17.7 kmh N 13.0 mph20.9 kmh 29.99 in1015.6 mb 0.00 in0.0 mm 0.00 in0.0 mm 0.00 in0.0 mm
04:35 AM 50.1°F10.1°C 44.8°F7.1°C 82% 10.0 mph N16.1 kmh N 13.0 mph20.9 kmh 30.00 in1015.9 mb 0.00 in0.0 mm 0.00 in0.0 mm 0.00 in0.0 mm
04:40 AM 50.0°F10.0°C 44.4°F6.9°C 81% 9.0 mph N14.5 kmh N 11.0 mph17.7 kmh 30.00 in1015.9 mb 0.00 in0.0 mm 0.00 in0.0 mm 0.00 in0.0 mm
04:45 AM 50.1°F10.1°C 44.8°F7.1°C 82% 11.0 mph N17.7 kmh N 13.0 mph20.9 kmh 30.01 in1016.3 mb 0.00 in0.0 mm 0.00 in0.0 mm 0.00 in0.0 mm
04:50 AM 50.1°F10.1°C 44.8°F7.1°C 82% 12.0 mph NNW19.3 kmh NNW 13.0 mph20.9 kmh 30.01 in1016.3 mb 0.00 in0.0 mm 0.00 in0.0 mm 0.00 in0.0 mm
04:55 AM 50.2°F10.1°C 44.9°F7.2°C 82% 17.0 mph N27.4 kmh N 17.0 mph27.4 kmh 30.01 in1016.3 mb 0.00 in0.0 mm 0.00 in0.0 mm 0.00 in0.0 mm
05:00 AM 50.2°F10.1°C 44.6°F7.0°C 81% 13.0 mph N20.9 kmh N 18.0 mph29.0 kmh 30.02 in1016.6 mb 0.00 in0.0 mm 0.00 in0.0 mm 0.00 in0.0 mm
05:05 AM 50.3°F10.2°C 44.7°F7.1°C 81% 13.0 mph N20.9 kmh N 20.0 mph32.2 kmh 30.02 in1016.6 mb 0.00 in0.0 mm 0.00 in0.0 mm 0.00 in0.0 mm
05:10 AM 50.3°F10.2°C 44.4°F6.9°C 80% 16.0 mph N25.7 kmh N 18.0 mph29.0 kmh 30.02 in1016.6 mb 0.00 in0.0 mm 0.00 in0.0 mm 0.00 in0.0 mm
05:15 AM 50.2°F10.1°C 44.6°F7.0°C 81% 15.0 mph NNW24.1 kmh NNW 18.0 mph29.0 kmh 30.02 in1016.6 mb 0.00 in0.0 mm 0.00 in0.0 mm 0.00 in0.0 mm
05:20 AM 50.0°F10.0°C 44.1°F6.7°C 80% 13.0 mph NNW20.9 kmh NNW 20.0 mph32.2 kmh 30.03 in1016.9 mb 0.00 in0.0 mm 0.00 in0.0 mm 0.00 in0.0 mm
05:25 AM 49.9°F9.9°C 44.0°F6.7°C 80% 11.0 mph NNW17.7 kmh NNW 15.0 mph24.1 kmh 30.03 in1016.9 mb 0.00 in0.0 mm 0.00 in0.0 mm 0.00 in0.0 mm
05:30 AM 49.8°F9.9°C 43.6°F6.4°C 79% 16.0 mph N25.7 kmh N 18.0 mph29.0 kmh 30.04 in1017.3 mb 0.00 in0.0 mm 0.00 in0.0 mm 0.00 in0.0 mm
05:35 AM 49.7°F9.8°C 43.5°F6.4°C 79% 17.0 mph N27.4 kmh N 19.0 mph30.6 kmh 30.04 in1017.3 mb 0.00 in0.0 mm 0.00 in0.0 mm 0.00 in0.0 mm
05:40 AM 49.6°F9.8°C 43.0°F6.1°C 78% 12.0 mph NNW19.3 kmh NNW 14.0 mph22.5 kmh 30.04 in1017.3 mb 0.00 in0.0 mm 0.00 in0.0 mm 0.00 in0.0 mm
05:45 AM 49.5°F9.7°C 42.6°F5.9°C 77% 9.0 mph N14.5 kmh N 17.0 mph27.4 kmh 30.05 in1017.6 mb 0.00 in0.0 mm 0.00 in0.0 mm 0.00 in0.0 mm
05:50 AM 49.5°F9.7°C 42.3°F5.7°C 76% 13.0 mph NNW20.9 kmh NNW 17.0 mph27.4 kmh 30.05 in1017.6 mb 0.00 in0.0 mm 0.00 in0.0 mm 0.00 in0.0 mm
05:55 AM 49.6°F9.8°C 42.0°F5.6°C 75% 9.0 mph NNW14.5 kmh NNW 10.0 mph16.1 kmh 30.05 in1017.6 mb 0.00 in0.0 mm 0.00 in0.0 mm 0.00 in0.0 mm
06:00 AM 49.5°F9.7°C 42.3°F5.7°C 76% 6.0 mph NNW9.7 kmh NNW 12.0 mph19.3 kmh 30.06 in1017.9 mb 0.00 in0.0 mm 0.00 in0.0 mm 0.00 in0.0 mm
06:05 AM 49.2°F9.6°C 42.0°F5.6°C 76% 9.0 mph NW14.5 kmh NW 13.0 mph20.9 kmh 30.06 in1017.9 mb 0.00 in0.0 mm 0.00 in0.0 mm 0.00 in0.0 mm
06:10 AM 49.1°F9.5°C 42.2°F5.7°C 77% 8.0 mph NNW12.9 kmh NNW 10.0 mph16.1 kmh 30.06 in1017.9 mb 0.00 in0.0 mm 0.00 in0.0 mm 0.00 in0.0 mm
06:15 AM 49.0°F9.4°C 41.8°F5.4°C 76% 8.0 mph NW12.9 kmh NW 14.0 mph22.5 kmh 30.06 in1017.9 mb 0.00 in0.0 mm 0.00 in0.0 mm 0.00 in0.0 mm
06:20 AM 48.9°F9.4°C 41.7°F5.4°C 76% 12.0 mph NNW19.3 kmh NNW 14.0 mph22.5 kmh 30.06 in1017.9 mb 0.00 in0.0 mm 0.00 in0.0 mm 0.00 in0.0 mm
06:25 AM 48.9°F9.4°C 41.3°F5.2°C 75% 11.0 mph N17.7 kmh N 13.0 mph20.9 kmh 30.06 in1017.9 mb 0.00 in0.0 mm 0.00 in0.0 mm 0.00 in0.0 mm
06:30 AM 48.9°F9.4°C 40.6°F4.8°C 73% 13.0 mph N20.9 kmh N 16.0 mph25.7 kmh 30.06 in1017.9 mb 0.00 in0.0 mm 0.00 in0.0 mm 0.00 in0.0 mm
06:35 AM 49.0°F9.4°C 41.1°F5.1°C 74% 10.0 mph N16.1 kmh N 16.0 mph25.7 kmh 30.07 in1018.3 mb 0.00 in0.0 mm 0.00 in0.0 mm 0.00 in0.0 mm
06:40 AM 49.0°F9.4°C 40.7°F4.8°C 73% 12.0 mph NNW19.3 kmh NNW 12.0 mph19.3 kmh 30.07 in1018.3 mb 0.00 in0.0 mm 0.00 in0.0 mm 0.00 in0.0 mm
06:45 AM 49.1°F9.5°C 40.5°F4.7°C 72% 13.0 mph NW20.9 kmh NW 15.0 mph24.1 kmh 30.08 in1018.6 mb 0.00 in0.0 mm 0.00 in0.0 mm 0.00 in0.0 mm
06:50 AM 49.0°F9.4°C 40.7°F4.8°C 73% 9.0 mph NNW14.5 kmh NNW 17.0 mph27.4 kmh 30.08 in1018.6 mb 0.00 in0.0 mm 0.00 in0.0 mm 0.00 in0.0 mm
06:55 AM 49.1°F9.5°C 40.8°F4.9°C 73% 10.0 mph NNW16.1 kmh NNW 12.0 mph19.3 kmh 30.08 in1018.6 mb 0.00 in0.0 mm 0.00 in0.0 mm 0.00 in0.0 mm
07:00 AM 49.3°F9.6°C 41.0°F5.0°C 73% 8.0 mph NNW12.9 kmh NNW 13.0 mph20.9 kmh 30.08 in1018.6 mb 0.00 in0.0 mm 0.00 in0.0 mm 0.00 in0.0 mm
07:05 AM 49.4°F9.7°C 41.5°F5.3°C 74% 12.0 mph NW19.3 kmh NW 14.0 mph22.5 kmh 30.08 in1018.6 mb 0.00 in0.0 mm 0.00 in0.0 mm 0.00 in0.0 mm
07:10 AM 49.6°F9.8°C 41.3°F5.2°C 73% 10.0 mph NNW16.1 kmh NNW 13.0 mph20.9 kmh 30.09 in1019.0 mb 0.00 in0.0 mm 0.00 in0.0 mm 0.00 in0.0 mm
07:15 AM 49.6°F9.8°C 41.3°F5.2°C 73% 13.0 mph NNW20.9 kmh NNW 14.0 mph22.5 kmh 30.10 in1019.3 mb 0.00 in0.0 mm 0.00 in0.0 mm 0.00 in0.0 mm
07:20 AM 49.8°F9.9°C 41.5°F5.3°C 73% 11.0 mph NNW17.7 kmh NNW 16.0 mph25.7 kmh 30.09 in1019.0 mb 0.00 in0.0 mm 0.00 in0.0 mm 0.00 in0.0 mm
07:25 AM 49.8°F9.9°C 40.8°F4.9°C 71% 4.0 mph NNW6.4 kmh NNW 11.0 mph17.7 kmh 30.09 in1019.0 mb 0.00 in0.0 mm 0.00 in0.0 mm 0.00 in0.0 mm
07:30 AM 49.8°F9.9°C 41.5°F5.3°C 73% 11.0 mph NNW17.7 kmh NNW 16.0 mph25.7 kmh 30.10 in1019.3 mb 0.00 in0.0 mm 0.00 in0.0 mm 0.00 in0.0 mm
07:35 AM 49.9°F9.9°C 41.6°F5.3°C 73% 5.0 mph NNW8.0 kmh NNW 16.0 mph25.7 kmh 30.10 in1019.3 mb 0.00 in0.0 mm 0.00 in0.0 mm 0.00 in0.0 mm
07:40 AM 49.8°F9.9°C 41.2°F5.1°C 72% 8.0 mph NNW12.9 kmh NNW 13.0 mph20.9 kmh 30.10 in1019.3 mb 0.00 in0.0 mm 0.00 in0.0 mm 0.00 in0.0 mm
07:45 AM 49.9°F9.9°C 41.6°F5.3°C 73% 13.0 mph N20.9 kmh N 16.0 mph25.7 kmh 30.10 in1019.3 mb 0.00 in0.0 mm 0.00 in0.0 mm 0.00 in0.0 mm
07:50 AM 50.1°F10.1°C 42.2°F5.7°C 74% 16.0 mph NW25.7 kmh NW 16.0 mph25.7 kmh 30.10 in1019.3 mb 0.00 in0.0 mm 0.00 in0.0 mm 0.00 in0.0 mm
07:55 AM 50.1°F10.1°C 41.8°F5.4°C 73% 10.0 mph NNW16.1 kmh NNW 11.0 mph17.7 kmh 30.10 in1019.3 mb 0.00 in0.0 mm 0.00 in0.0 mm 0.00 in0.0 mm
08:00 AM 50.1°F10.1°C 41.4°F5.2°C 72% 10.0 mph N16.1 kmh N 15.0 mph24.1 kmh 30.10 in1019.3 mb 0.00 in0.0 mm 0.00 in0.0 mm 0.00 in0.0 mm
08:05 AM 50.2°F10.1°C 41.2°F5.1°C 71% 9.0 mph NNW14.5 kmh NNW 15.0 mph24.1 kmh 30.10 in1019.3 mb 0.00 in0.0 mm 0.00 in0.0 mm 0.00 in0.0 mm
08:10 AM 50.4°F10.2°C 42.4°F5.8°C 74% 12.0 mph N19.3 kmh N 13.0 mph20.9 kmh 30.10 in1019.3 mb 0.00 in0.0 mm 0.00 in0.0 mm 0.00 in0.0 mm
08:15 AM 50.4°F10.2°C 42.4°F5.8°C 74% 12.0 mph N19.3 kmh N 16.0 mph25.7 kmh 30.11 in1019.6 mb 0.00 in0.0 mm 0.00 in0.0 mm 0.00 in0.0 mm
08:20 AM 50.4°F10.2°C 42.4°F5.8°C 74% 15.0 mph N24.1 kmh N 17.0 mph27.4 kmh 30.10 in1019.3 mb 0.00 in0.0 mm 0.00 in0.0 mm 0.00 in0.0 mm
08:25 AM 50.5°F10.3°C 42.5°F5.8°C 74% 15.0 mph N24.1 kmh N 16.0 mph25.7 kmh 30.11 in1019.6 mb 0.00 in0.0 mm 0.00 in0.0 mm 0.00 in0.0 mm
08:30 AM 50.6°F10.3°C 42.3°F5.7°C 73% 11.0 mph N17.7 kmh N 16.0 mph25.7 kmh 30.11 in1019.6 mb 0.00 in0.0 mm 0.00 in0.0 mm 0.00 in0.0 mm
08:35 AM 50.6°F10.3°C 43.0°F6.1°C 75% 13.0 mph N20.9 kmh N 16.0 mph25.7 kmh 30.10 in1019.3 mb 0.00 in0.0 mm 0.00 in0.0 mm 0.00 in0.0 mm
08:40 AM 50.8°F10.4°C 43.2°F6.2°C 75% 11.0 mph N17.7 kmh N 12.0 mph19.3 kmh 30.10 in1019.3 mb 0.00 in0.0 mm 0.00 in0.0 mm 0.00 in0.0 mm
08:45 AM 50.8°F10.4°C 42.5°F5.8°C 73% 9.0 mph NNW14.5 kmh NNW 16.0 mph25.7 kmh 30.10 in1019.3 mb 0.00 in0.0 mm 0.00 in0.0 mm 0.00 in0.0 mm
08:50 AM 51.1°F10.6°C 43.8°F6.6°C 76% 10.0 mph N16.1 kmh N 16.0 mph25.7 kmh 30.11 in1019.6 mb 0.00 in0.0 mm 0.00 in0.0 mm 0.00 in0.0 mm
08:55 AM 51.1°F10.6°C 43.1°F6.2°C 74% 12.0 mph NNE19.3 kmh NNE 13.0 mph20.9 kmh 30.11 in1019.6 mb 0.00 in0.0 mm 0.00 in0.0 mm 0.00 in0.0 mm
09:00 AM 51.2°F10.7°C 42.9°F6.1°C 73% 10.0 mph NNE16.1 kmh NNE 13.0 mph20.9 kmh 30.11 in1019.6 mb 0.00 in0.0 mm 0.00 in0.0 mm 0.00 in0.0 mm
09:05 AM 51.6°F10.9°C 44.3°F6.8°C 76% 10.0 mph N16.1 kmh N 13.0 mph20.9 kmh 30.12 in1020.0 mb 0.00 in0.0 mm 0.00 in0.0 mm 0.00 in0.0 mm
09:10 AM 52.0°F11.1°C 44.0°F6.7°C 74% 10.0 mph N16.1 kmh N 12.0 mph19.3 kmh 30.11 in1019.6 mb 0.00 in0.0 mm 0.00 in0.0 mm 0.00 in0.0 mm
09:15 AM 51.9°F11.1°C 44.2°F6.8°C 75% 13.0 mph N20.9 kmh N 16.0 mph25.7 kmh 30.12 in1020.0 mb 0.00 in0.0 mm 0.00 in0.0 mm 0.00 in0.0 mm
09:20 AM 51.9°F11.1°C 44.2°F6.8°C 75% 12.0 mph N19.3 kmh N 16.0 mph25.7 kmh 30.11 in1019.6 mb 0.00 in0.0 mm 0.00 in0.0 mm 0.00 in0.0 mm
09:25 AM 52.2°F11.2°C 44.5°F6.9°C 75% 14.0 mph NNE22.5 kmh NNE 15.0 mph24.1 kmh 30.12 in1020.0 mb 0.00 in0.0 mm 0.00 in0.0 mm 0.00 in0.0 mm
09:30 AM 52.3°F11.3°C 45.0°F7.2°C 76% 10.0 mph N16.1 kmh N 16.0 mph25.7 kmh 30.12 in1020.0 mb 0.00 in0.0 mm 0.00 in0.0 mm 0.00 in0.0 mm
09:35 AM 52.4°F11.3°C 44.7°F7.1°C 75% 15.0 mph NNE24.1 kmh NNE 16.0 mph25.7 kmh 30.11 in1019.6 mb 0.00 in0.0 mm 0.00 in0.0 mm 0.00 in0.0 mm
09:40 AM 52.6°F11.4°C 45.3°F7.4°C 76% 12.0 mph NNE19.3 kmh NNE 13.0 mph20.9 kmh 30.11 in1019.6 mb 0.00 in0.0 mm 0.00 in0.0 mm 0.00 in0.0 mm
09:45 AM 52.8°F11.6°C 45.8°F7.7°C 77% 14.0 mph NNE22.5 kmh NNE 16.0 mph25.7 kmh 30.12 in1020.0 mb 0.00 in0.0 mm 0.00 in0.0 mm 0.00 in0.0 mm
09:50 AM 52.9°F11.6°C 45.2°F7.3°C 75% 13.0 mph N20.9 kmh N 16.0 mph25.7 kmh 30.12 in1020.0 mb 0.00 in0.0 mm 0.00 in0.0 mm 0.00 in0.0 mm
09:55 AM 52.9°F11.6°C 44.9°F7.2°C 74% 9.0 mph NNE14.5 kmh NNE 10.0 mph16.1 kmh 30.12 in1020.0 mb 0.00 in0.0 mm 0.00 in0.0 mm 0.00 in0.0 mm
10:00 AM 53.3°F11.8°C 46.3°F7.9°C 77% 12.0 mph NNE19.3 kmh NNE 14.0 mph22.5 kmh 30.12 in1020.0 mb 0.00 in0.0 mm 0.00 in0.0 mm 0.00 in0.0 mm
10:05 AM 53.3°F11.8°C 45.6°F7.6°C 75% 12.0 mph NNE19.3 kmh NNE 14.0 mph22.5 kmh 30.12 in1020.0 mb 0.00 in0.0 mm 0.00 in0.0 mm 0.00 in0.0 mm
10:10 AM 53.5°F11.9°C 46.1°F7.8°C 76% 12.0 mph NNE19.3 kmh NNE 12.0 mph19.3 kmh 30.12 in1020.0 mb 0.00 in0.0 mm 0.00 in0.0 mm 0.00 in0.0 mm
10:15 AM 53.6°F12.0°C 45.2°F7.3°C 73% 13.0 mph NNE20.9 kmh NNE 15.0 mph24.1 kmh 30.12 in1020.0 mb 0.00 in0.0 mm 0.00 in0.0 mm 0.00 in0.0 mm
10:20 AM 53.8°F12.1°C 45.7°F7.6°C 74% 15.0 mph NE24.1 kmh NE 17.0 mph27.4 kmh 30.11 in1019.6 mb 0.00 in0.0 mm 0.00 in0.0 mm 0.00 in0.0 mm
10:25 AM 53.9°F12.2°C 45.8°F7.7°C 74% 12.0 mph NNE19.3 kmh NNE 14.0 mph22.5 kmh 30.11 in1019.6 mb 0.00 in0.0 mm 0.00 in0.0 mm 0.00 in0.0 mm
10:30 AM 54.0°F12.2°C 47.0°F8.3°C 77% 11.0 mph NNE17.7 kmh NNE 14.0 mph22.5 kmh 30.11 in1019.6 mb 0.00 in0.0 mm 0.00 in0.0 mm 0.00 in0.0 mm
10:35 AM 54.1°F12.3°C 46.7°F8.2°C 76% 13.0 mph NE20.9 kmh NE 15.0 mph24.1 kmh 30.11 in1019.6 mb 0.00 in0.0 mm 0.00 in0.0 mm 0.00 in0.0 mm
10:40 AM 54.1°F12.3°C 45.7°F7.6°C 73% 12.0 mph NNE19.3 kmh NNE 12.0 mph19.3 kmh 30.11 in1019.6 mb 0.00 in0.0 mm 0.00 in0.0 mm 0.00 in0.0 mm
10:45 AM 54.4°F12.4°C 46.7°F8.2°C 75% 11.0 mph NE17.7 kmh NE 13.0 mph20.9 kmh 30.11 in1019.6 mb 0.00 in0.0 mm 0.00 in0.0 mm 0.00 in0.0 mm
10:50 AM 54.2°F12.3°C 45.8°F7.7°C 73% 11.0 mph NNE17.7 kmh NNE 13.0 mph20.9 kmh 30.11 in1019.6 mb 0.00 in0.0 mm 0.00 in0.0 mm 0.00 in0.0 mm
10:55 AM 54.3°F12.4°C 46.6°F8.1°C 75% 10.0 mph NNE16.1 kmh NNE 10.0 mph16.1 kmh 30.12 in1020.0 mb 0.00 in0.0 mm 0.00 in0.0 mm 0.00 in0.0 mm
11:00 AM 54.4°F12.4°C 45.9°F7.7°C 73% 10.0 mph NE16.1 kmh NE 12.0 mph19.3 kmh 30.12 in1020.0 mb 0.00 in0.0 mm 0.00 in0.0 mm 0.00 in0.0 mm
11:05 AM 54.9°F12.7°C 46.4°F8.0°C 73% 10.0 mph N16.1 kmh N 12.0 mph19.3 kmh 30.12 in1020.0 mb 0.00 in0.0 mm 0.00 in0.0 mm 0.00 in0.0 mm
11:10 AM 55.1°F12.8°C 46.6°F8.1°C 73% 9.0 mph N14.5 kmh N 9.0 mph14.5 kmh 30.12 in1020.0 mb 0.00 in0.0 mm 0.00 in0.0 mm 0.00 in0.0 mm
11:15 AM 55.1°F12.8°C 46.6°F8.1°C 73% 8.0 mph N12.9 kmh N 10.0 mph16.1 kmh 30.12 in1020.0 mb 0.00 in0.0 mm 0.00 in0.0 mm 0.00 in0.0 mm
11:20 AM 55.1°F12.8°C 45.5°F7.5°C 70% 9.0 mph N14.5 kmh N 10.0 mph16.1 kmh 30.12 in1020.0 mb 0.00 in0.0 mm 0.00 in0.0 mm 0.00 in0.0 mm
11:25 AM 55.4°F13.0°C 46.9°F8.3°C 73% 8.0 mph N12.9 kmh N 8.0 mph12.9 kmh 30.12 in1020.0 mb 0.00 in0.0 mm 0.00 in0.0 mm 0.00 in0.0 mm
11:30 AM 55.5°F13.1°C 47.0°F8.3°C 73% 9.0 mph N14.5 kmh N 11.0 mph17.7 kmh 30.12 in1020.0 mb 0.00 in0.0 mm 0.00 in0.0 mm 0.00 in0.0 mm
11:35 AM 55.5°F13.1°C 46.6°F8.1°C 72% 10.0 mph NNE16.1 kmh NNE 11.0 mph17.7 kmh 30.11 in1019.6 mb 0.00 in0.0 mm 0.00 in0.0 mm 0.00 in0.0 mm
11:40 AM 55.6°F13.1°C 47.1°F8.4°C 73% 11.0 mph N17.7 kmh N 11.0 mph17.7 kmh 30.12 in1020.0 mb 0.00 in0.0 mm 0.00 in0.0 mm 0.00 in0.0 mm
11:45 AM 55.8°F13.2°C 46.9°F8.3°C 72% 9.0 mph NNE14.5 kmh NNE 11.0 mph17.7 kmh 30.12 in1020.0 mb 0.00 in0.0 mm 0.00 in0.0 mm 0.00 in0.0 mm
11:50 AM 55.8°F13.2°C 46.9°F8.3°C 72% 8.0 mph NNE12.9 kmh NNE 11.0 mph17.7 kmh 30.11 in1019.6 mb 0.00 in0.0 mm 0.00 in0.0 mm 0.00 in0.0 mm
11:55 AM 55.7°F13.2°C 46.8°F8.2°C 72% 10.0 mph NNE16.1 kmh NNE 11.0 mph17.7 kmh 30.11 in1019.6 mb 0.00 in0.0 mm 0.00 in0.0 mm 0.00 in0.0 mm
12:00 PM 55.9°F13.3°C 46.7°F8.2°C 71% 11.0 mph NNE17.7 kmh NNE 13.0 mph20.9 kmh 30.10 in1019.3 mb 0.00 in0.0 mm 0.00 in0.0 mm 0.00 in0.0 mm
12:05 PM 55.9°F13.3°C 47.0°F8.3°C 72% 10.0 mph NNE16.1 kmh NNE 13.0 mph20.9 kmh 30.10 in1019.3 mb 0.00 in0.0 mm 0.00 in0.0 mm 0.00 in0.0 mm
12:10 PM 56.1°F13.4°C 48.3°F9.1°C 75% 10.0 mph NNE16.1 kmh NNE 11.0 mph17.7 kmh 30.10 in1019.3 mb 0.00 in0.0 mm 0.00 in0.0 mm 0.00 in0.0 mm
12:15 PM 56.2°F13.4°C 47.7°F8.7°C 73% 9.0 mph NNE14.5 kmh NNE 12.0 mph19.3 kmh 30.10 in1019.3 mb 0.00 in0.0 mm 0.00 in0.0 mm 0.00 in0.0 mm
12:20 PM 56.2°F13.4°C 47.3°F8.5°C 72% 9.0 mph NNE14.5 kmh NNE 12.0 mph19.3 kmh 30.10 in1019.3 mb 0.00 in0.0 mm 0.00 in0.0 mm 0.00 in0.0 mm
12:25 PM 56.2°F13.4°C 46.9°F8.3°C 71% 11.0 mph NNE17.7 kmh NNE 11.0 mph17.7 kmh 30.10 in1019.3 mb 0.00 in0.0 mm 0.00 in0.0 mm 0.00 in0.0 mm
12:30 PM 56.4°F13.6°C 47.9°F8.8°C 73% 7.0 mph NE11.3 kmh NE 12.0 mph19.3 kmh 30.10 in1019.3 mb 0.00 in0.0 mm 0.00 in0.0 mm 0.00 in0.0 mm
12:35 PM 56.9°F13.8°C 48.0°F8.9°C 72% 10.0 mph NE16.1 kmh NE 13.0 mph20.9 kmh 30.10 in1019.3 mb 0.00 in0.0 mm 0.00 in0.0 mm 0.00 in0.0 mm
12:40 PM 57.1°F13.9°C 47.0°F8.3°C 69% 10.0 mph NE16.1 kmh NE 12.0 mph19.3 kmh 30.10 in1019.3 mb 0.00 in0.0 mm 0.00 in0.0 mm 0.00 in0.0 mm
12:45 PM 57.2°F14.0°C 47.1°F8.4°C 69% 9.0 mph NE14.5 kmh NE 13.0 mph20.9 kmh 30.10 in1019.3 mb 0.00 in0.0 mm 0.00 in0.0 mm 0.00 in0.0 mm
12:50 PM 57.2°F14.0°C 46.8°F8.2°C 68% 7.0 mph NE11.3 kmh NE 13.0 mph20.9 kmh 30.11 in1019.6 mb 0.00 in0.0 mm 0.00 in0.0 mm 0.00 in0.0 mm
12:55 PM 57.1°F13.9°C 45.5°F7.5°C 65% 8.0 mph NE12.9 kmh NE 9.0 mph14.5 kmh 30.10 in1019.3 mb 0.00 in0.0 mm 0.00 in0.0 mm 0.00 in0.0 mm
01:00 PM 57.0°F13.9°C 47.3°F8.5°C 70% 8.0 mph NE12.9 kmh NE 11.0 mph17.7 kmh 30.11 in1019.6 mb 0.00 in0.0 mm 0.00 in0.0 mm 0.00 in0.0 mm
01:05 PM 56.9°F13.8°C 47.6°F8.7°C 71% 8.0 mph NE12.9 kmh NE 11.0 mph17.7 kmh 30.10 in1019.3 mb 0.00 in0.0 mm 0.00 in0.0 mm 0.00 in0.0 mm
01:10 PM 57.0°F13.9°C 47.7°F8.7°C 71% 10.0 mph NE16.1 kmh NE 10.0 mph16.1 kmh 30.10 in1019.3 mb 0.00 in0.0 mm 0.00 in0.0 mm 0.00 in0.0 mm
01:15 PM 57.2°F14.0°C 47.5°F8.6°C 70% 7.0 mph NE11.3 kmh NE 10.0 mph16.1 kmh 30.09 in1019.0 mb 0.00 in0.0 mm 0.00 in0.0 mm 0.00 in0.0 mm
01:20 PM 57.4°F14.1°C 48.1°F8.9°C 71% 7.0 mph NE11.3 kmh NE 10.0 mph16.1 kmh 30.09 in1019.0 mb 0.00 in0.0 mm 0.00 in0.0 mm 0.00 in0.0 mm
01:25 PM 57.4°F14.1°C 46.9°F8.3°C 68% 10.0 mph NE16.1 kmh NE 10.0 mph16.1 kmh 30.09 in1019.0 mb 0.00 in0.0 mm 0.00 in0.0 mm 0.00 in0.0 mm
01:30 PM 57.6°F14.2°C 47.1°F8.4°C 68% 7.0 mph NE11.3 kmh NE 11.0 mph17.7 kmh 30.09 in1019.0 mb 0.00 in0.0 mm 0.00 in0.0 mm 0.00 in0.0 mm
01:35 PM 57.5°F14.2°C 47.0°F8.3°C 68% 7.0 mph NE11.3 kmh NE 11.0 mph17.7 kmh 30.09 in1019.0 mb 0.00 in0.0 mm 0.00 in0.0 mm 0.00 in0.0 mm
01:40 PM 57.3°F14.1°C 47.2°F8.4°C 69% 11.0 mph ENE17.7 kmh ENE 11.0 mph17.7 kmh 30.09 in1019.0 mb 0.00 in0.0 mm 0.00 in0.0 mm 0.00 in0.0 mm
01:45 PM 57.3°F14.1°C 47.6°F8.7°C 70% 9.0 mph ENE14.5 kmh ENE 11.0 mph17.7 kmh 30.08 in1018.6 mb 0.00 in0.0 mm 0.00 in0.0 mm 0.00 in0.0 mm
01:50 PM 57.4°F14.1°C 47.7°F8.7°C 70% 9.0 mph ENE14.5 kmh ENE 11.0 mph17.7 kmh 30.09 in1019.0 mb 0.00 in0.0 mm 0.00 in0.0 mm 0.00 in0.0 mm
01:55 PM 57.4°F14.1°C 46.6°F8.1°C 67% 8.0 mph ENE12.9 kmh ENE 9.0 mph14.5 kmh 30.09 in1019.0 mb 0.00 in0.0 mm 0.00 in0.0 mm 0.00 in0.0 mm
02:00 PM 57.2°F14.0°C 46.8°F8.2°C 68% 9.0 mph ENE14.5 kmh ENE 11.0 mph17.7 kmh 30.09 in1019.0 mb 0.00 in0.0 mm 0.00 in0.0 mm 0.00 in0.0 mm
02:05 PM 57.6°F14.2°C 47.9°F8.8°C 70% 9.0 mph NE14.5 kmh NE 12.0 mph19.3 kmh 30.09 in1019.0 mb 0.00 in0.0 mm 0.00 in0.0 mm 0.00 in0.0 mm
02:10 PM 57.6°F14.2°C 47.9°F8.8°C 70% 10.0 mph ENE16.1 kmh ENE 10.0 mph16.1 kmh 30.09 in1019.0 mb 0.00 in0.0 mm 0.00 in0.0 mm 0.00 in0.0 mm
02:15 PM 57.6°F14.2°C 47.9°F8.8°C 70% 9.0 mph ENE14.5 kmh ENE 12.0 mph19.3 kmh 30.08 in1018.6 mb 0.00 in0.0 mm 0.00 in0.0 mm 0.00 in0.0 mm
02:20 PM 57.5°F14.2°C 48.6°F9.2°C 72% 10.0 mph ENE16.1 kmh ENE 12.0 mph19.3 kmh 30.08 in1018.6 mb 0.00 in0.0 mm 0.00 in0.0 mm 0.00 in0.0 mm
02:25 PM 57.8°F14.3°C 48.1°F8.9°C 70% 12.0 mph ENE19.3 kmh ENE 13.0 mph20.9 kmh 30.09 in1019.0 mb 0.00 in0.0 mm 0.00 in0.0 mm 0.00 in0.0 mm
02:30 PM 57.8°F14.3°C 49.2°F9.6°C 73% 10.0 mph ENE16.1 kmh ENE 13.0 mph20.9 kmh 30.08 in1018.6 mb 0.00 in0.0 mm 0.00 in0.0 mm 0.00 in0.0 mm
02:35 PM 57.9°F14.4°C 48.2°F9.0°C 70% 9.0 mph NE14.5 kmh NE 13.0 mph20.9 kmh 30.08 in1018.6 mb 0.00 in0.0 mm 0.00 in0.0 mm 0.00 in0.0 mm
02:40 PM 57.9°F14.4°C 47.4°F8.6°C 68% 12.0 mph ENE19.3 kmh ENE 14.0 mph22.5 kmh 30.08 in1018.6 mb 0.00 in0.0 mm 0.00 in0.0 mm 0.00 in0.0 mm
02:45 PM 58.0°F14.4°C 48.7°F9.3°C 71% 10.0 mph NE16.1 kmh NE 14.0 mph22.5 kmh 30.08 in1018.6 mb 0.00 in0.0 mm 0.00 in0.0 mm 0.00 in0.0 mm
02:50 PM 57.8°F14.3°C 49.2°F9.6°C 73% 10.0 mph NE16.1 kmh NE 14.0 mph22.5 kmh 30.08 in1018.6 mb 0.00 in0.0 mm 0.00 in0.0 mm 0.00 in0.0 mm
02:55 PM 57.8°F14.3°C 49.6°F9.8°C 74% 10.0 mph ENE16.1 kmh ENE 12.0 mph19.3 kmh 30.08 in1018.6 mb 0.00 in0.0 mm 0.00 in0.0 mm 0.00 in0.0 mm
03:00 PM 57.8°F14.3°C 48.5°F9.2°C 71% 10.0 mph ENE16.1 kmh ENE 13.0 mph20.9 kmh 30.08 in1018.6 mb 0.00 in0.0 mm 0.00 in0.0 mm 0.00 in0.0 mm
03:05 PM 57.7°F14.3°C 49.1°F9.5°C 73% 10.0 mph NE16.1 kmh NE 13.0 mph20.9 kmh 30.07 in1018.3 mb 0.00 in0.0 mm 0.00 in0.0 mm 0.00 in0.0 mm
03:10 PM 57.6°F14.2°C 49.8°F9.9°C 75% 9.0 mph NE14.5 kmh NE 9.0 mph14.5 kmh 30.07 in1018.3 mb 0.00 in0.0 mm 0.00 in0.0 mm 0.00 in0.0 mm
03:15 PM 57.8°F14.3°C 48.8°F9.3°C 72% 7.0 mph NE11.3 kmh NE 11.0 mph17.7 kmh 30.07 in1018.3 mb 0.00 in0.0 mm 0.00 in0.0 mm 0.00 in0.0 mm
03:20 PM 57.7°F14.3°C 49.8°F9.9°C 75% 10.0 mph NE16.1 kmh NE 11.0 mph17.7 kmh 30.07 in1018.3 mb 0.00 in0.0 mm 0.00 in0.0 mm 0.00 in0.0 mm
03:25 PM 57.7°F14.3°C 49.5°F9.7°C 74% 9.0 mph NE14.5 kmh NE 10.0 mph16.1 kmh 30.07 in1018.3 mb 0.00 in0.0 mm 0.00 in0.0 mm 0.00 in0.0 mm
03:30 PM 57.9°F14.4°C 49.7°F9.8°C 74% 10.0 mph ENE16.1 kmh ENE 12.0 mph19.3 kmh 30.07 in1018.3 mb 0.00 in0.0 mm 0.00 in0.0 mm 0.00 in0.0 mm
03:35 PM 57.8°F14.3°C 49.9°F9.9°C 75% 12.0 mph ENE19.3 kmh ENE 12.0 mph19.3 kmh 30.07 in1018.3 mb 0.00 in0.0 mm 0.00 in0.0 mm 0.00 in0.0 mm
03:40 PM 58.0°F14.4°C 49.0°F9.4°C 72% 10.0 mph NE16.1 kmh NE 11.0 mph17.7 kmh 30.07 in1018.3 mb 0.00 in0.0 mm 0.00 in0.0 mm 0.00 in0.0 mm
03:45 PM 58.4°F14.7°C 49.4°F9.7°C 72% 13.0 mph NE20.9 kmh NE 14.0 mph22.5 kmh 30.07 in1018.3 mb 0.00 in0.0 mm 0.00 in0.0 mm 0.00 in0.0 mm
03:50 PM 58.5°F14.7°C 49.5°F9.7°C 72% 13.0 mph NE20.9 kmh NE 15.0 mph24.1 kmh 30.07 in1018.3 mb 0.00 in0.0 mm 0.00 in0.0 mm 0.00 in0.0 mm
03:55 PM 58.4°F14.7°C 49.4°F9.7°C 72% 9.0 mph NE14.5 kmh NE 11.0 mph17.7 kmh 30.07 in1018.3 mb 0.00 in0.0 mm 0.00 in0.0 mm 0.00 in0.0 mm
04:00 PM 58.0°F14.4°C 50.5°F10.3°C 76% 10.0 mph NE16.1 kmh NE 12.0 mph19.3 kmh 30.06 in1017.9 mb 0.00 in0.0 mm 0.00 in0.0 mm 0.00 in0.0 mm
04:05 PM 58.0°F14.4°C 50.5°F10.3°C 76% 11.0 mph ENE17.7 kmh ENE 13.0 mph20.9 kmh 30.06 in1017.9 mb 0.00 in0.0 mm 0.00 in0.0 mm 0.00 in0.0 mm
04:10 PM 58.0°F14.4°C 49.8°F9.9°C 74% 12.0 mph ENE19.3 kmh ENE 14.0 mph22.5 kmh 30.07 in1018.3 mb 0.00 in0.0 mm 0.00 in0.0 mm 0.00 in0.0 mm
04:15 PM 58.0°F14.4°C 50.5°F10.3°C 76% 13.0 mph ENE20.9 kmh ENE 16.0 mph25.7 kmh 30.07 in1018.3 mb 0.00 in0.0 mm 0.00 in0.0 mm 0.00 in0.0 mm
04:20 PM 57.9°F14.4°C 50.4°F10.2°C 76% 12.0 mph ENE19.3 kmh ENE 16.0 mph25.7 kmh 30.07 in1018.3 mb 0.00 in0.0 mm 0.00 in0.0 mm 0.00 in0.0 mm
04:25 PM 57.9°F14.4°C 50.7°F10.4°C 77% 13.0 mph NE20.9 kmh NE 13.0 mph20.9 kmh 30.07 in1018.3 mb 0.00 in0.0 mm 0.00 in0.0 mm 0.00 in0.0 mm
04:30 PM 58.0°F14.4°C 50.5°F10.3°C 76% 16.0 mph ENE25.7 kmh ENE 17.0 mph27.4 kmh 30.07 in1018.3 mb 0.00 in0.0 mm 0.00 in0.0 mm 0.00 in0.0 mm
04:35 PM 58.0°F14.4°C 50.8°F10.4°C 77% 13.0 mph NE20.9 kmh NE 17.0 mph27.4 kmh 30.07 in1018.3 mb 0.00 in0.0 mm 0.00 in0.0 mm 0.00 in0.0 mm
04:40 PM 58.0°F14.4°C 50.5°F10.3°C 76% 16.0 mph ENE25.7 kmh ENE 16.0 mph25.7 kmh 30.07 in1018.3 mb 0.00 in0.0 mm 0.00 in0.0 mm 0.00 in0.0 mm
04:45 PM 58.0°F14.4°C 50.8°F10.4°C 77% 12.0 mph ENE19.3 kmh ENE 18.0 mph29.0 kmh 30.07 in1018.3 mb 0.00 in0.0 mm 0.00 in0.0 mm 0.00 in0.0 mm
04:50 PM 57.9°F14.4°C 50.4°F10.2°C 76% 16.0 mph ENE25.7 kmh ENE 18.0 mph29.0 kmh 30.06 in1017.9 mb 0.00 in0.0 mm 0.00 in0.0 mm 0.00 in0.0 mm
04:55 PM 58.0°F14.4°C 50.8°F10.4°C 77% 14.0 mph NE22.5 kmh NE 14.0 mph22.5 kmh 30.06 in1017.9 mb 0.00 in0.0 mm 0.00 in0.0 mm 0.00 in0.0 mm
05:00 PM 57.9°F14.4°C 51.1°F10.6°C 78% 13.0 mph ENE20.9 kmh ENE 17.0 mph27.4 kmh 30.07 in1018.3 mb 0.00 in0.0 mm 0.00 in0.0 mm 0.00 in0.0 mm
05:05 PM 57.9°F14.4°C 51.1°F10.6°C 78% 14.0 mph NE22.5 kmh NE 18.0 mph29.0 kmh 30.07 in1018.3 mb 0.00 in0.0 mm 0.00 in0.0 mm 0.00 in0.0 mm
05:10 PM 57.9°F14.4°C 51.4°F10.8°C 79% 14.0 mph NE22.5 kmh NE 14.0 mph22.5 kmh 30.07 in1018.3 mb 0.00 in0.0 mm 0.00 in0.0 mm 0.00 in0.0 mm
05:15 PM 57.8°F14.3°C 51.3°F10.7°C 79% 12.0 mph NE19.3 kmh NE 16.0 mph25.7 kmh 30.07 in1018.3 mb 0.00 in0.0 mm 0.00 in0.0 mm 0.00 in0.0 mm
05:20 PM 57.8°F14.3°C 51.3°F10.7°C 79% 12.0 mph NE19.3 kmh NE 16.0 mph25.7 kmh 30.06 in1017.9 mb 0.00 in0.0 mm 0.00 in0.0 mm 0.00 in0.0 mm
05:25 PM 57.7°F14.3°C 50.9°F10.5°C 78% 12.0 mph NE19.3 kmh NE 13.0 mph20.9 kmh 30.06 in1017.9 mb 0.00 in0.0 mm 0.00 in0.0 mm 0.00 in0.0 mm
05:30 PM 57.6°F14.2°C 51.1°F10.6°C 79% 12.0 mph NE19.3 kmh NE 14.0 mph22.5 kmh 30.07 in1018.3 mb 0.00 in0.0 mm 0.00 in0.0 mm 0.00 in0.0 mm
05:35 PM 57.5°F14.2°C 51.1°F10.6°C 79% 11.0 mph NE17.7 kmh NE 15.0 mph24.1 kmh 30.07 in1018.3 mb 0.00 in0.0 mm 0.00 in0.0 mm 0.00 in0.0 mm
05:40 PM 57.5°F14.2°C 51.4°F10.8°C 80% 10.0 mph NE16.1 kmh NE 11.0 mph17.7 kmh 30.08 in1018.6 mb 0.00 in0.0 mm 0.00 in0.0 mm 0.00 in0.0 mm
05:45 PM 57.4°F14.1°C 51.6°F10.9°C 81% 10.0 mph NE16.1 kmh NE 12.0 mph19.3 kmh 30.08 in1018.6 mb 0.00 in0.0 mm 0.00 in0.0 mm 0.00 in0.0 mm
05:50 PM 57.3°F14.1°C 51.5°F10.8°C 81% 10.0 mph NE16.1 kmh NE 12.0 mph19.3 kmh 30.08 in1018.6 mb 0.00 in0.0 mm 0.00 in0.0 mm 0.00 in0.0 mm
05:55 PM 57.1°F13.9°C 51.0°F10.6°C 80% 11.0 mph NE17.7 kmh NE 12.0 mph19.3 kmh 30.08 in1018.6 mb 0.00 in0.0 mm 0.00 in0.0 mm 0.00 in0.0 mm
06:00 PM 57.1°F13.9°C 51.0°F10.6°C 80% 11.0 mph NE17.7 kmh NE 14.0 mph22.5 kmh 30.08 in1018.6 mb 0.00 in0.0 mm 0.00 in0.0 mm 0.00 in0.0 mm
06:05 PM 57.1°F13.9°C 51.3°F10.7°C 81% 12.0 mph NE19.3 kmh NE 14.0 mph22.5 kmh 30.08 in1018.6 mb 0.00 in0.0 mm 0.00 in0.0 mm 0.00 in0.0 mm
06:10 PM 57.0°F13.9°C 51.2°F10.7°C 81% 13.0 mph NE20.9 kmh NE 13.0 mph20.9 kmh 30.08 in1018.6 mb 0.00 in0.0 mm 0.00 in0.0 mm 0.00 in0.0 mm
06:15 PM 56.9°F13.8°C 51.5°F10.8°C 82% 12.0 mph NE19.3 kmh NE 15.0 mph24.1 kmh 30.08 in1018.6 mb 0.00 in0.0 mm 0.00 in0.0 mm 0.00 in0.0 mm
06:20 PM 56.8°F13.8°C 51.0°F10.6°C 81% 13.0 mph NE20.9 kmh NE 16.0 mph25.7 kmh 30.07 in1018.3 mb 0.00 in0.0 mm 0.00 in0.0 mm 0.00 in0.0 mm
06:25 PM 56.8°F13.8°C 51.0°F10.6°C 81% 14.0 mph NE22.5 kmh NE 14.0 mph22.5 kmh 30.07 in1018.3 mb 0.00 in0.0 mm 0.00 in0.0 mm 0.00 in0.0 mm
06:30 PM 56.8°F13.8°C 51.0°F10.6°C 81% 13.0 mph NE20.9 kmh NE 15.0 mph24.1 kmh 30.08 in1018.6 mb 0.00 in0.0 mm 0.00 in0.0 mm 0.00 in0.0 mm
06:35 PM 56.8°F13.8°C 50.7°F10.4°C 80% 13.0 mph NE20.9 kmh NE 15.0 mph24.1 kmh 30.08 in1018.6 mb 0.00 in0.0 mm 0.00 in0.0 mm 0.00 in0.0 mm
06:40 PM 56.8°F13.8°C 50.7°F10.4°C 80% 12.0 mph NE19.3 kmh NE 14.0 mph22.5 kmh 30.09 in1019.0 mb 0.00 in0.0 mm 0.00 in0.0 mm 0.00 in0.0 mm
06:45 PM 56.8°F13.8°C 51.0°F10.6°C 81% 13.0 mph NE20.9 kmh NE 15.0 mph24.1 kmh 30.08 in1018.6 mb 0.00 in0.0 mm 0.00 in0.0 mm 0.00 in0.0 mm
06:50 PM 56.7°F13.7°C 50.9°F10.5°C 81% 13.0 mph NE20.9 kmh NE 16.0 mph25.7 kmh 30.08 in1018.6 mb 0.00 in0.0 mm 0.00 in0.0 mm 0.00 in0.0 mm
06:55 PM 56.6°F13.7°C 50.9°F10.5°C 81% 15.0 mph NE24.1 kmh NE 15.0 mph24.1 kmh 30.09 in1019.0 mb 0.00 in0.0 mm 0.00 in0.0 mm 0.00 in0.0 mm
07:00 PM 56.6°F13.7°C 50.9°F10.5°C 81% 13.0 mph NE20.9 kmh NE 17.0 mph27.4 kmh 30.08 in1018.6 mb 0.00 in0.0 mm 0.00 in0.0 mm 0.00 in0.0 mm
07:05 PM 56.6°F13.7°C 50.9°F10.5°C 81% 13.0 mph NE20.9 kmh NE 17.0 mph27.4 kmh 30.09 in1019.0 mb 0.00 in0.0 mm 0.00 in0.0 mm 0.00 in0.0 mm
07:10 PM 56.5°F13.6°C 50.8°F10.4°C 81% 15.0 mph NE24.1 kmh NE 15.0 mph24.1 kmh 30.09 in1019.0 mb 0.00 in0.0 mm 0.00 in0.0 mm 0.00 in0.0 mm
07:15 PM 56.5°F13.6°C 50.4°F10.2°C 80% 17.0 mph NE27.4 kmh NE 17.0 mph27.4 kmh 30.09 in1019.0 mb 0.00 in0.0 mm 0.00 in0.0 mm 0.00 in0.0 mm
07:20 PM 56.5°F13.6°C 50.8°F10.4°C 81% 14.0 mph NE22.5 kmh NE 17.0 mph27.4 kmh 30.10 in1019.3 mb 0.00 in0.0 mm 0.00 in0.0 mm 0.00 in0.0 mm
07:25 PM 56.4°F13.6°C 50.7°F10.4°C 81% 14.0 mph NE22.5 kmh NE 14.0 mph22.5 kmh 30.10 in1019.3 mb 0.00 in0.0 mm 0.00 in0.0 mm 0.00 in0.0 mm
07:30 PM 56.3°F13.5°C 50.9°F10.5°C 82% 15.0 mph NE24.1 kmh NE 16.0 mph25.7 kmh 30.10 in1019.3 mb 0.00 in0.0 mm 0.00 in0.0 mm 0.00 in0.0 mm
07:35 PM 56.1°F13.4°C 51.0°F10.6°C 83% 17.0 mph NE27.4 kmh NE 17.0 mph27.4 kmh 30.10 in1019.3 mb 0.00 in0.0 mm 0.00 in0.0 mm 0.00 in0.0 mm
07:40 PM 55.7°F13.2°C 50.0°F10.0°C 81% 16.0 mph NNE25.7 kmh NNE 17.0 mph27.4 kmh 30.10 in1019.3 mb 0.00 in0.0 mm 0.00 in0.0 mm 0.00 in0.0 mm
07:45 PM 55.5°F13.1°C 49.8°F9.9°C 81% 17.0 mph NNE27.4 kmh NNE 19.0 mph30.6 kmh 30.10 in1019.3 mb 0.00 in0.0 mm 0.00 in0.0 mm 0.00 in0.0 mm
07:50 PM 55.2°F12.9°C 49.8°F9.9°C 82% 14.0 mph N22.5 kmh N 19.0 mph30.6 kmh 30.10 in1019.3 mb 0.00 in0.0 mm 0.00 in0.0 mm 0.00 in0.0 mm
07:55 PM 54.9°F12.7°C 49.5°F9.7°C 82% 14.0 mph N22.5 kmh N 17.0 mph27.4 kmh 30.10 in1019.3 mb 0.00 in0.0 mm 0.00 in0.0 mm 0.00 in0.0 mm
08:00 PM 54.7°F12.6°C 49.7°F9.8°C 83% 16.0 mph NNE25.7 kmh NNE 19.0 mph30.6 kmh 30.10 in1019.3 mb 0.00 in0.0 mm 0.00 in0.0 mm 0.00 in0.0 mm
08:05 PM 54.4°F12.4°C 49.0°F9.4°C 82% 16.0 mph NNE25.7 kmh NNE 19.0 mph30.6 kmh 30.11 in1019.6 mb 0.00 in0.0 mm 0.00 in0.0 mm 0.00 in0.0 mm
08:10 PM 54.2°F12.3°C 48.5°F9.2°C 81% 15.0 mph NNE24.1 kmh NNE 18.0 mph29.0 kmh 30.11 in1019.6 mb 0.00 in0.0 mm 0.00 in0.0 mm 0.00 in0.0 mm
08:15 PM 54.2°F12.3°C 49.2°F9.6°C 83% 15.0 mph N24.1 kmh N 18.0 mph29.0 kmh 30.11 in1019.6 mb 0.00 in0.0 mm 0.00 in0.0 mm 0.00 in0.0 mm
08:20 PM 54.1°F12.3°C 49.1°F9.5°C 83% 14.0 mph N22.5 kmh N 19.0 mph30.6 kmh 30.12 in1020.0 mb 0.00 in0.0 mm 0.00 in0.0 mm 0.00 in0.0 mm
08:25 PM 53.8°F12.1°C 48.8°F9.3°C 83% 16.0 mph N25.7 kmh N 16.0 mph25.7 kmh 30.12 in1020.0 mb 0.00 in0.0 mm 0.00 in0.0 mm 0.00 in0.0 mm
08:30 PM 53.6°F12.0°C 48.6°F9.2°C 83% 13.0 mph N20.9 kmh N 18.0 mph29.0 kmh 30.12 in1020.0 mb 0.00 in0.0 mm 0.00 in0.0 mm 0.00 in0.0 mm
08:35 PM 53.3°F11.8°C 48.3°F9.1°C 83% 15.0 mph N24.1 kmh N 18.0 mph29.0 kmh 30.12 in1020.0 mb 0.00 in0.0 mm 0.00 in0.0 mm 0.00 in0.0 mm
08:40 PM 53.1°F11.7°C 48.1°F8.9°C 83% 17.0 mph NNE27.4 kmh NNE 18.0 mph29.0 kmh 30.12 in1020.0 mb 0.00 in0.0 mm 0.00 in0.0 mm 0.00 in0.0 mm
08:45 PM 53.0°F11.7°C 48.3°F9.1°C 84% 13.0 mph N20.9 kmh N 18.0 mph29.0 kmh 30.13 in1020.3 mb 0.00 in0.0 mm 0.00 in0.0 mm 0.00 in0.0 mm
08:50 PM 52.9°F11.6°C 48.2°F9.0°C 84% 13.0 mph N20.9 kmh N 18.0 mph29.0 kmh 30.13 in1020.3 mb 0.00 in0.0 mm 0.00 in0.0 mm 0.00 in0.0 mm
08:55 PM 52.8°F11.6°C 48.1°F8.9°C 84% 18.0 mph NNE29.0 kmh NNE 18.0 mph29.0 kmh 30.12 in1020.0 mb 0.00 in0.0 mm 0.00 in0.0 mm 0.00 in0.0 mm
09:00 PM 52.8°F11.6°C 48.4°F9.1°C 85% 14.0 mph N22.5 kmh N 19.0 mph30.6 kmh 30.12 in1020.0 mb 0.00 in0.0 mm 0.00 in0.0 mm 0.00 in0.0 mm
09:05 PM 52.5°F11.4°C 48.1°F8.9°C 85% 12.0 mph N19.3 kmh N 19.0 mph30.6 kmh 30.12 in1020.0 mb 0.00 in0.0 mm 0.00 in0.0 mm 0.00 in0.0 mm
09:10 PM 52.2°F11.2°C 47.5°F8.6°C 84% 12.0 mph N19.3 kmh N 13.0 mph20.9 kmh 30.13 in1020.3 mb 0.00 in0.0 mm 0.00 in0.0 mm 0.00 in0.0 mm
09:15 PM 52.1°F11.2°C 47.7°F8.7°C 85% 13.0 mph N20.9 kmh N 14.0 mph22.5 kmh 30.12 in1020.0 mb 0.00 in0.0 mm 0.00 in0.0 mm 0.00 in0.0 mm
09:20 PM 52.0°F11.1°C 47.6°F8.7°C 85% 12.0 mph N19.3 kmh N 14.0 mph22.5 kmh 30.12 in1020.0 mb 0.00 in0.0 mm 0.00 in0.0 mm 0.00 in0.0 mm
09:25 PM 51.9°F11.1°C 47.5°F8.6°C 85% 13.0 mph N20.9 kmh N 13.0 mph20.9 kmh 30.12 in1020.0 mb 0.00 in0.0 mm 0.00 in0.0 mm 0.00 in0.0 mm
09:30 PM 51.7°F10.9°C 47.3°F8.5°C 85% 12.0 mph N19.3 kmh N 15.0 mph24.1 kmh 30.13 in1020.3 mb 0.00 in0.0 mm 0.00 in0.0 mm 0.00 in0.0 mm
09:35 PM 51.7°F10.9°C 47.3°F8.5°C 85% 11.0 mph N17.7 kmh N 16.0 mph25.7 kmh 30.13 in1020.3 mb 0.00 in0.0 mm 0.00 in0.0 mm 0.00 in0.0 mm
09:40 PM 51.6°F10.9°C 47.6°F8.7°C 86% 14.0 mph NNE22.5 kmh NNE 15.0 mph24.1 kmh 30.12 in1020.0 mb 0.00 in0.0 mm 0.00 in0.0 mm 0.00 in0.0 mm
09:45 PM 51.5°F10.8°C 47.5°F8.6°C 86% 14.0 mph N22.5 kmh N 16.0 mph25.7 kmh 30.12 in1020.0 mb 0.00 in0.0 mm 0.00 in0.0 mm 0.00 in0.0 mm
09:50 PM 51.5°F10.8°C 47.5°F8.6°C 86% 12.0 mph N19.3 kmh N 16.0 mph25.7 kmh 30.13 in1020.3 mb 0.00 in0.0 mm 0.00 in0.0 mm 0.00 in0.0 mm
09:55 PM 51.4°F10.8°C 47.4°F8.6°C 86% 12.0 mph NNE19.3 kmh NNE 12.0 mph19.3 kmh 30.13 in1020.3 mb 0.00 in0.0 mm 0.00 in0.0 mm 0.00 in0.0 mm
10:00 PM 51.4°F10.8°C 47.7°F8.7°C 87% 13.0 mph N20.9 kmh N 14.0 mph22.5 kmh 30.13 in1020.3 mb 0.00 in0.0 mm 0.00 in0.0 mm 0.00 in0.0 mm
10:05 PM 51.3°F10.7°C 47.3°F8.5°C 86% 12.0 mph N19.3 kmh N 14.0 mph22.5 kmh 30.13 in1020.3 mb 0.00 in0.0 mm 0.00 in0.0 mm 0.00 in0.0 mm
10:10 PM 51.2°F10.7°C 47.5°F8.6°C 87% 12.0 mph N19.3 kmh N 12.0 mph19.3 kmh 30.13 in1020.3 mb 0.00 in0.0 mm 0.00 in0.0 mm 0.00 in0.0 mm
10:15 PM 51.0°F10.6°C 47.0°F8.3°C 86% 9.0 mph N14.5 kmh N 14.0 mph22.5 kmh 30.13 in1020.3 mb 0.00 in0.0 mm 0.00 in0.0 mm 0.00 in0.0 mm
10:20 PM 51.0°F10.6°C 47.3°F8.5°C 87% 9.0 mph N14.5 kmh N 14.0 mph22.5 kmh 30.13 in1020.3 mb 0.00 in0.0 mm 0.00 in0.0 mm 0.00 in0.0 mm
10:25 PM 51.1°F10.6°C 47.4°F8.6°C 87% 11.0 mph N17.7 kmh N 13.0 mph20.9 kmh 30.12 in1020.0 mb 0.00 in0.0 mm 0.00 in0.0 mm 0.00 in0.0 mm
10:30 PM 51.0°F10.6°C 47.3°F8.5°C 87% 11.0 mph N17.7 kmh N 13.0 mph20.9 kmh 30.12 in1020.0 mb 0.00 in0.0 mm 0.00 in0.0 mm 0.00 in0.0 mm
10:35 PM 51.1°F10.6°C 47.7°F8.7°C 88% 11.0 mph NNE17.7 kmh NNE 13.0 mph20.9 kmh 30.12 in1020.0 mb 0.00 in0.0 mm 0.00 in0.0 mm 0.00 in0.0 mm
10:40 PM 51.1°F10.6°C 47.7°F8.7°C 88% 14.0 mph NNE22.5 kmh NNE 15.0 mph24.1 kmh 30.12 in1020.0 mb 0.00 in0.0 mm 0.00 in0.0 mm 0.00 in0.0 mm
10:45 PM 51.2°F10.7°C 47.8°F8.8°C 88% 10.0 mph N16.1 kmh N 15.0 mph24.1 kmh 30.12 in1020.0 mb 0.00 in0.0 mm 0.00 in0.0 mm 0.00 in0.0 mm
10:50 PM 51.0°F10.6°C 47.6°F8.7°C 88% 12.0 mph N19.3 kmh N 15.0 mph24.1 kmh 30.12 in1020.0 mb 0.00 in0.0 mm 0.00 in0.0 mm 0.00 in0.0 mm
10:55 PM 51.1°F10.6°C 47.7°F8.7°C 88% 11.0 mph N17.7 kmh N 12.0 mph19.3 kmh 30.13 in1020.3 mb 0.00 in0.0 mm 0.00 in0.0 mm 0.00 in0.0 mm
11:00 PM 51.0°F10.6°C 47.6°F8.7°C 88% 10.0 mph NNE16.1 kmh NNE 12.0 mph19.3 kmh 30.12 in1020.0 mb 0.00 in0.0 mm 0.00 in0.0 mm 0.00 in0.0 mm
11:05 PM 51.1°F10.6°C 47.7°F8.7°C 88% 13.0 mph NNE20.9 kmh NNE 14.0 mph22.5 kmh 30.12 in1020.0 mb 0.00 in0.0 mm 0.00 in0.0 mm 0.00 in0.0 mm
11:10 PM 51.2°F10.7°C 48.1°F8.9°C 89% 10.0 mph N16.1 kmh N 12.0 mph19.3 kmh 30.13 in1020.3 mb 0.00 in0.0 mm 0.00 in0.0 mm 0.00 in0.0 mm
11:15 PM 51.2°F10.7°C 47.8°F8.8°C 88% 10.0 mph N16.1 kmh N 12.0 mph19.3 kmh 30.13 in1020.3 mb 0.00 in0.0 mm 0.00 in0.0 mm 0.00 in0.0 mm
11:20 PM 51.2°F10.7°C 48.1°F8.9°C 89% 11.0 mph NNE17.7 kmh NNE 12.0 mph19.3 kmh 30.13 in1020.3 mb 0.00 in0.0 mm 0.00 in0.0 mm 0.00 in0.0 mm
11:25 PM 51.2°F10.7°C 48.1°F8.9°C 89% 9.0 mph NNE14.5 kmh NNE 11.0 mph17.7 kmh 30.13 in1020.3 mb 0.00 in0.0 mm 0.00 in0.0 mm 0.00 in0.0 mm
11:30 PM 51.3°F10.7°C 48.2°F9.0°C 89% 12.0 mph NNE19.3 kmh NNE 13.0 mph20.9 kmh 30.12 in1020.0 mb 0.00 in0.0 mm 0.00 in0.0 mm 0.00 in0.0 mm
11:35 PM 51.2°F10.7°C 48.1°F8.9°C 89% 11.0 mph NNE17.7 kmh NNE 13.0 mph20.9 kmh 30.12 in1020.0 mb 0.00 in0.0 mm 0.00 in0.0 mm 0.00 in0.0 mm
11:40 PM 51.2°F10.7°C 48.1°F8.9°C 89% 10.0 mph NNE16.1 kmh NNE 11.0 mph17.7 kmh 30.12 in1020.0 mb 0.00 in0.0 mm 0.00 in0.0 mm 0.00 in0.0 mm
11:45 PM 51.4°F10.8°C 48.3°F9.1°C 89% 10.0 mph NNE16.1 kmh NNE 12.0 mph19.3 kmh 30.12 in1020.0 mb 0.00 in0.0 mm 0.00 in0.0 mm 0.00 in0.0 mm
11:50 PM 51.4°F10.8°C 48.6°F9.2°C 90% 10.0 mph NNE16.1 kmh NNE 13.0 mph20.9 kmh 30.12 in1020.0 mb 0.00 in0.0 mm 0.00 in0.0 mm 0.00 in0.0 mm
11:55 PM 51.7°F10.9°C 48.9°F9.4°C 90% 11.0 mph NE17.7 kmh NE 13.0 mph20.9 kmh 30.12 in1020.0 mb 0.00 in0.0 mm 0.00 in0.0 mm 0.00 in0.0 mm